createdAt,value
2022-11-12T00:02:43.098Z,89.34
2022-11-12T00:05:46.804Z,90.12
2022-11-12T00:08:48.457Z,90.91
2022-11-12T00:11:50.026Z,90.67
2022-11-12T00:14:51.496Z,90.98
2022-11-12T00:17:53.064Z,90.27
2022-11-12T00:20:56.016Z,90.07
2022-11-12T00:23:57.547Z,89.78
2022-11-12T00:26:59.116Z,89.77
2022-11-12T00:30:00.775Z,89.77
2022-11-12T00:33:05.334Z,89.81
2022-11-12T00:36:08.984Z,89.78
2022-11-12T00:39:10.475Z,90.42
2022-11-12T00:42:11.999Z,90.40
2022-11-12T00:45:13.549Z,90.61
2022-11-12T00:48:15.140Z,91.27
2022-11-12T00:51:18.357Z,91.23
2022-11-12T00:54:19.946Z,90.73
2022-11-12T00:57:21.411Z,90.76
2022-11-12T01:00:23.142Z,90.42
2022-11-12T01:03:27.645Z,90.18
2022-11-12T01:06:30.853Z,90.59
2022-11-12T01:09:32.286Z,90.43
2022-11-12T01:12:33.906Z,90.26
2022-11-12T01:15:39.969Z,91.04
2022-11-12T01:18:41.679Z,90.47
2022-11-12T01:21:45.044Z,91.10
2022-11-12T01:24:46.557Z,90.29
2022-11-12T01:27:48.212Z,91.27
2022-11-12T01:30:51.989Z,91.10
2022-11-12T01:33:54.478Z,91.08
2022-11-12T01:36:57.470Z,91.58
2022-11-12T01:39:58.990Z,91.71
2022-11-12T01:43:00.525Z,92.10
2022-11-12T01:46:03.267Z,92.64
2022-11-12T01:49:06.478Z,92.59
2022-11-12T01:52:16.129Z,92.27
2022-11-12T01:55:20.056Z,92.92
2022-11-12T01:58:24.234Z,92.85
2022-11-12T02:01:26.283Z,92.85
2022-11-12T02:04:28.338Z,92.36
2022-11-12T02:07:31.772Z,92.65
2022-11-12T02:10:34.240Z,93.00
2022-11-12T02:13:54.423Z,92.58
2022-11-12T02:16:56.008Z,91.77
2022-11-12T02:19:58.764Z,92.21
2022-11-12T02:23:01.869Z,92.44
2022-11-12T02:26:03.605Z,92.52
2022-11-12T02:29:05.484Z,92.15
2022-11-12T02:32:07.355Z,92.74
2022-11-12T02:35:09.167Z,93.02
2022-11-12T02:38:12.105Z,92.75
2022-11-12T02:41:13.768Z,92.89
2022-11-12T02:44:15.266Z,93.24
2022-11-12T02:47:17.017Z,92.72
2022-11-12T02:50:18.610Z,92.51
2022-11-12T02:53:21.497Z,92.49
2022-11-12T02:56:23.013Z,92.56
2022-11-12T02:59:24.946Z,92.98
2022-11-12T03:02:26.499Z,93.12
2022-11-12T03:05:29.044Z,92.89
2022-11-12T03:08:32.009Z,93.24
2022-11-12T03:11:33.641Z,93.85
2022-11-12T03:14:35.199Z,94.24
2022-11-12T03:17:36.760Z,94.02
2022-11-12T03:20:38.764Z,94.62
2022-11-12T03:23:41.826Z,94.73
2022-11-12T03:26:43.324Z,94.81
2022-11-12T03:29:44.859Z,94.78
2022-11-12T03:32:46.315Z,94.59
2022-11-12T03:35:47.870Z,94.93
2022-11-12T03:38:50.753Z,95.45
2022-11-12T03:41:52.311Z,95.41
2022-11-12T03:44:53.865Z,95.39
2022-11-12T03:47:56.473Z,95.27
2022-11-12T03:50:58.952Z,95.55
2022-11-12T03:54:01.868Z,95.60
2022-11-12T03:57:03.335Z,95.43
2022-11-12T04:00:05.886Z,95.67
2022-11-12T04:03:07.458Z,95.28
2022-11-12T04:06:27.779Z,95.78
2022-11-12T04:09:30.817Z,95.83
2022-11-12T04:12:50.827Z,95.79
2022-11-12T04:16:12.611Z,95.52
2022-11-12T04:19:33.089Z,95.73
2022-11-12T04:22:34.646Z,95.85
2022-11-12T04:25:57.715Z,95.74
2022-11-12T04:29:17.566Z,96.26
2022-11-12T04:32:19.094Z,96.16
2022-11-12T04:35:21.460Z,95.41
2022-11-12T04:38:23.109Z,96.01
2022-11-12T04:41:49.391Z,95.85
2022-11-12T04:45:04.779Z,95.82
2022-11-12T04:48:06.341Z,95.66
2022-11-12T04:51:27.867Z,95.70
2022-11-12T04:54:29.819Z,95.46
2022-11-12T04:57:32.698Z,95.95
2022-11-12T05:00:34.274Z,95.64
2022-11-12T05:03:35.979Z,95.83
2022-11-12T05:06:52.698Z,96.00
2022-11-12T05:09:54.189Z,96.32
2022-11-12T05:12:57.467Z,96.41
2022-11-12T05:15:58.888Z,96.42
2022-11-12T05:19:00.498Z,96.63
2022-11-12T05:22:17.469Z,96.53
2022-11-12T05:25:28.866Z,96.51
2022-11-12T05:28:31.789Z,96.22
2022-11-12T05:31:33.335Z,96.41
2022-11-12T05:34:35.117Z,95.81
2022-11-12T05:37:36.716Z,96.19
2022-11-12T05:40:38.256Z,96.97
2022-11-12T05:43:41.113Z,97.42
2022-11-12T05:46:42.625Z,98.02
2022-11-12T05:49:44.082Z,97.91
2022-11-12T05:52:45.861Z,97.40
2022-11-12T05:55:47.412Z,97.70
2022-11-12T05:58:50.320Z,97.45
2022-11-12T06:01:52.003Z,97.35
2022-11-12T06:04:53.678Z,97.44
2022-11-12T06:07:55.182Z,97.83
2022-11-12T06:10:56.690Z,97.51
2022-11-12T06:13:59.532Z,97.42
2022-11-12T06:17:01.115Z,97.83
2022-11-12T06:20:02.668Z,97.71
2022-11-12T06:23:04.600Z,98.04
2022-11-12T06:26:06.168Z,98.17
2022-11-12T06:29:09.247Z,97.88
2022-11-12T06:32:11.238Z,97.89
2022-11-12T06:35:13.040Z,98.67
2022-11-12T06:38:14.561Z,98.26
2022-11-12T06:41:16.166Z,98.83
2022-11-12T06:44:22.339Z,98.72
2022-11-12T06:47:24.154Z,98.65
2022-11-12T06:50:25.889Z,98.79
2022-11-12T06:53:27.436Z,98.58
2022-11-12T06:56:29.100Z,98.64
2022-11-12T06:59:31.987Z,98.43
2022-11-12T07:02:33.509Z,97.37
2022-11-12T07:05:36.091Z,97.57
2022-11-12T07:08:38.368Z,98.14
2022-11-12T07:11:40.034Z,98.35
2022-11-12T07:14:43.004Z,97.86
2022-11-12T07:17:45.551Z,98.20
2022-11-12T07:20:47.171Z,98.08
2022-11-12T07:23:49.044Z,98.05
2022-11-12T07:26:50.513Z,98.20
2022-11-12T07:29:53.392Z,97.83
2022-11-12T07:32:57.526Z,97.62
2022-11-12T07:35:59.972Z,97.91
2022-11-12T07:39:01.538Z,98.41
2022-11-12T07:42:03.215Z,98.37
2022-11-12T07:45:07.103Z,99.06
2022-11-12T07:48:08.585Z,98.76
2022-11-12T07:51:12.841Z,99.10
2022-11-12T07:54:14.656Z,98.89
2022-11-12T07:57:16.262Z,99.05
2022-11-12T08:00:19.585Z,99.07
2022-11-12T08:03:21.191Z,98.99
2022-11-12T08:06:22.638Z,98.52
2022-11-12T08:09:24.375Z,99.14
2022-11-12T08:12:26.231Z,99.02
2022-11-12T08:15:32.449Z,99.64
2022-11-12T08:18:34.269Z,99.25
2022-11-12T08:21:36.424Z,99.08
2022-11-12T08:24:37.962Z,98.78
2022-11-12T08:27:39.485Z,99.22
2022-11-12T08:30:42.411Z,99.05
2022-11-12T08:33:44.089Z,99.06
2022-11-12T08:36:45.592Z,98.82
2022-11-12T08:39:47.168Z,98.81
2022-11-12T08:42:48.768Z,98.64
2022-11-12T08:45:51.691Z,98.42
2022-11-12T08:48:53.218Z,98.79
2022-11-12T08:51:54.884Z,98.24
2022-11-12T08:54:56.681Z,98.06
2022-11-12T08:58:02.022Z,98.06
2022-11-12T09:01:07.099Z,97.51
2022-11-12T09:04:08.885Z,97.92
2022-11-12T09:07:28.607Z,98.00
2022-11-12T09:10:32.975Z,97.70
2022-11-12T09:13:34.626Z,97.88
2022-11-12T09:16:37.840Z,97.82
2022-11-12T09:19:42.893Z,97.45
2022-11-12T09:22:44.952Z,97.53
2022-11-12T09:25:46.425Z,97.18
2022-11-12T09:28:48.194Z,97.47
2022-11-12T09:31:51.353Z,97.43
2022-11-12T09:34:52.972Z,97.29
2022-11-12T09:37:54.593Z,97.43
2022-11-12T09:41:14.582Z,97.30
2022-11-12T09:44:18.781Z,96.83
2022-11-12T09:47:26.712Z,96.84
2022-11-12T09:50:30.482Z,96.63
2022-11-12T09:53:34.533Z,96.60
2022-11-12T09:56:38.344Z,96.24
2022-11-12T09:59:42.510Z,96.22
2022-11-12T10:02:52.553Z,95.72
2022-11-12T10:05:58.440Z,95.71
2022-11-12T10:09:10.659Z,95.18
2022-11-12T10:12:33.627Z,95.05
2022-11-12T10:15:55.940Z,95.13
2022-11-12T10:19:06.402Z,94.72
2022-11-12T10:22:18.223Z,94.66
2022-11-12T10:25:20.399Z,94.78
2022-11-12T10:28:27.162Z,94.62
2022-11-12T10:31:29.560Z,94.57
2022-11-12T10:34:36.026Z,94.48
2022-11-12T10:37:41.487Z,94.27
2022-11-12T10:40:43.120Z,94.32
2022-11-12T10:43:52.851Z,94.13
2022-11-12T10:47:14.909Z,93.85
2022-11-12T10:50:22.555Z,93.87
2022-11-12T10:53:32.755Z,94.02
2022-11-12T10:56:34.474Z,93.71
2022-11-12T10:59:35.987Z,93.73
2022-11-12T11:02:37.662Z,93.25
2022-11-12T11:05:50.403Z,92.95
2022-11-12T11:08:52.946Z,92.85
2022-11-12T11:11:56.830Z,92.38
2022-11-12T11:15:07.605Z,92.45
2022-11-12T11:18:10.769Z,92.54
2022-11-12T11:21:19.039Z,92.02
2022-11-12T11:24:36.687Z,91.77
2022-11-12T11:27:45.199Z,91.60
2022-11-12T11:30:52.064Z,91.11
2022-11-12T11:33:56.589Z,90.71
2022-11-12T11:37:05.724Z,90.54
2022-11-12T11:40:14.988Z,90.59
2022-11-12T11:43:27.200Z,90.52
2022-11-12T11:46:41.301Z,90.35
2022-11-12T11:49:51.058Z,90.66
2022-11-12T11:53:01.216Z,90.35
2022-11-12T11:56:05.166Z,90.21
2022-11-12T11:59:17.011Z,90.24
2022-11-12T12:02:33.215Z,89.97
2022-11-12T12:05:40.627Z,90.00
2022-11-12T12:08:58.248Z,90.04
2022-11-12T12:12:04.066Z,90.01
2022-11-12T12:15:19.117Z,90.05
2022-11-12T12:18:26.448Z,89.70
2022-11-12T12:21:32.294Z,89.96
2022-11-12T12:24:42.375Z,89.97
2022-11-12T12:27:50.080Z,89.70
2022-11-12T12:30:53.704Z,90.19
2022-11-12T12:33:58.527Z,89.94
2022-11-12T12:37:03.663Z,89.74
2022-11-12T12:40:13.395Z,89.13
2022-11-12T12:43:17.651Z,89.24
2022-11-12T12:46:21.523Z,89.16
2022-11-12T12:49:28.676Z,89.19
2022-11-12T12:52:31.148Z,89.43
2022-11-12T12:55:39.333Z,89.55
2022-11-12T12:58:43.358Z,89.15
2022-11-12T13:02:05.823Z,89.03
2022-11-12T13:05:22.581Z,89.19
2022-11-12T13:08:26.234Z,89.37
2022-11-12T13:12:06.912Z,89.35
2022-11-12T13:15:11.735Z,89.16
2022-11-12T13:18:35.015Z,89.18
2022-11-12T13:21:36.736Z,89.04
2022-11-12T13:24:57.123Z,88.86
2022-11-12T13:28:09.527Z,89.25
2022-11-12T13:31:26.856Z,89.21
2022-11-12T13:34:31.574Z,88.99
2022-11-12T13:37:33.464Z,88.72
2022-11-12T13:40:38.496Z,88.32
2022-11-12T13:43:42.734Z,88.42
2022-11-12T13:46:45.938Z,88.91
2022-11-12T13:49:48.195Z,88.88
2022-11-12T13:52:50.048Z,89.14
2022-11-12T13:55:52.716Z,88.95
2022-11-12T13:58:54.511Z,89.22
2022-11-12T14:02:03.806Z,89.08
2022-11-12T14:05:13.051Z,88.98
2022-11-12T14:08:24.620Z,88.88
2022-11-12T14:11:36.914Z,89.28
2022-11-12T14:14:47.241Z,89.61
2022-11-12T14:17:56.830Z,89.39
2022-11-12T14:20:58.491Z,89.21
2022-11-12T14:24:02.076Z,89.54
2022-11-12T14:27:04.229Z,89.77
2022-11-12T14:30:11.594Z,89.89
2022-11-12T14:33:19.617Z,90.10
2022-11-12T14:36:22.071Z,90.16
2022-11-12T14:39:24.538Z,90.57
2022-11-12T14:42:35.641Z,90.39
2022-11-12T14:45:37.240Z,90.41
2022-11-12T14:48:46.296Z,90.41
2022-11-12T14:51:49.166Z,90.65
2022-11-12T14:54:52.148Z,90.75
2022-11-12T14:57:58.808Z,90.62
2022-11-12T15:01:47.768Z,90.80
2022-11-12T15:04:43.463Z,90.63
2022-11-12T15:07:52.843Z,90.56
2022-11-12T15:10:54.901Z,90.50
2022-11-12T15:13:57.049Z,90.68
2022-11-12T15:17:00.779Z,90.80
2022-11-12T15:20:05.001Z,90.86
2022-11-12T15:23:14.533Z,90.94
2022-11-12T15:26:24.031Z,91.17
2022-11-12T15:29:30.093Z,90.98
2022-11-12T15:32:32.471Z,91.08
2022-11-12T15:35:37.275Z,91.29
2022-11-12T15:38:38.891Z,91.54
2022-11-12T15:41:40.492Z,91.72
2022-11-12T15:44:42.355Z,91.78
2022-11-12T15:47:43.867Z,91.91
2022-11-12T15:50:47.055Z,91.76
2022-11-12T15:53:48.615Z,91.69
2022-11-12T15:56:50.668Z,91.64
2022-11-12T15:59:54.935Z,91.88
2022-11-12T16:02:59.306Z,91.77
2022-11-12T16:06:08.608Z,91.99
2022-11-12T16:09:11.038Z,91.57
2022-11-12T16:12:13.466Z,91.99
2022-11-12T16:15:15.557Z,92.16
2022-11-12T16:18:17.078Z,92.41
2022-11-12T16:21:21.090Z,92.65
2022-11-12T16:24:22.912Z,92.58
2022-11-12T16:27:25.579Z,92.83
2022-11-12T16:30:28.901Z,93.00
2022-11-12T16:33:30.891Z,92.79
2022-11-12T16:36:33.990Z,92.89
2022-11-12T16:39:35.639Z,93.14
2022-11-12T16:42:37.111Z,93.40
2022-11-12T16:45:39.939Z,93.63
2022-11-12T16:48:41.669Z,93.56
2022-11-12T16:51:44.725Z,93.50
2022-11-12T16:54:46.250Z,93.48
2022-11-12T16:57:47.754Z,93.94
2022-11-12T17:00:52.700Z,94.11
2022-11-12T17:03:57.991Z,93.59
2022-11-12T17:07:01.011Z,93.42
2022-11-12T17:10:02.635Z,93.62
2022-11-12T17:13:04.102Z,94.11
2022-11-12T17:16:06.620Z,93.38
2022-11-12T17:19:10.331Z,93.73
2022-11-12T17:22:26.949Z,94.04
2022-11-12T17:26:02.486Z,93.56
2022-11-12T17:29:08.091Z,94.14
2022-11-12T17:32:10.828Z,94.15
2022-11-12T17:35:15.251Z,93.93
2022-11-12T17:38:18.235Z,93.74
2022-11-12T17:41:19.753Z,94.01
2022-11-12T17:44:21.271Z,94.26
2022-11-12T17:47:22.955Z,94.78
2022-11-12T17:50:25.382Z,94.89
2022-11-12T17:53:29.741Z,96.14
2022-11-12T17:56:36.958Z,96.46
2022-11-12T17:59:38.769Z,95.59
2022-11-12T18:02:40.320Z,94.30
2022-11-12T18:05:41.860Z,93.54
2022-11-12T18:08:44.970Z,92.64
2022-11-12T18:11:47.577Z,92.59
2022-11-12T18:14:49.108Z,92.68
2022-11-12T18:17:52.377Z,93.06
2022-11-12T18:20:54.113Z,93.71
2022-11-12T18:23:57.057Z,93.61
2022-11-12T18:26:58.564Z,93.67
2022-11-12T18:30:00.571Z,93.92
2022-11-12T18:33:02.060Z,94.40
2022-11-12T18:36:04.238Z,94.74
2022-11-12T18:39:07.648Z,94.09
2022-11-12T18:42:09.291Z,94.55
2022-11-12T18:45:11.002Z,94.25
2022-11-12T18:48:12.753Z,94.03
2022-11-12T18:51:15.304Z,94.52
2022-11-12T18:54:18.236Z,94.06
2022-11-12T18:57:19.902Z,93.81
2022-11-12T19:00:21.594Z,93.58
2022-11-12T19:03:23.175Z,93.10
2022-11-12T19:06:27.826Z,93.05
2022-11-12T19:09:30.873Z,92.82
2022-11-12T19:12:32.351Z,92.65
2022-11-12T19:15:34.293Z,92.59
2022-11-12T19:18:35.779Z,92.45
2022-11-12T19:21:37.395Z,92.32
2022-11-12T19:24:40.230Z,92.10
2022-11-12T19:27:42.570Z,92.17
2022-11-12T19:30:44.027Z,92.46
2022-11-12T19:33:46.719Z,92.75
2022-11-12T19:36:48.448Z,92.34
2022-11-12T19:39:56.187Z,92.42
2022-11-12T19:42:57.872Z,92.44
2022-11-12T19:46:07.476Z,92.45
2022-11-12T19:49:12.033Z,92.12
2022-11-12T19:52:13.500Z,92.32
2022-11-12T19:55:16.511Z,92.02
2022-11-12T19:58:18.209Z,91.58
2022-11-12T20:01:19.985Z,92.00
2022-11-12T20:04:24.199Z,92.00
2022-11-12T20:07:26.087Z,92.04
2022-11-12T20:10:28.901Z,91.40
2022-11-12T20:13:30.397Z,91.22
2022-11-12T20:16:33.170Z,91.55
2022-11-12T20:19:35.561Z,91.27
2022-11-12T20:22:37.034Z,90.81
2022-11-12T20:25:39.913Z,90.49
2022-11-12T20:28:42.426Z,90.53
2022-11-12T20:31:43.914Z,90.53
2022-11-12T20:34:45.479Z,90.53
2022-11-12T20:37:47.228Z,90.42
2022-11-12T20:40:56.392Z,90.58
2022-11-12T20:44:04.441Z,90.53
2022-11-12T20:47:05.874Z,90.75
2022-11-12T20:50:07.672Z,90.43
2022-11-12T20:53:09.471Z,90.39
2022-11-12T20:56:13.399Z,90.29
2022-11-12T20:59:15.102Z,90.07
2022-11-12T21:02:16.676Z,89.96
2022-11-12T21:05:18.525Z,90.16
2022-11-12T21:08:23.862Z,89.82
2022-11-12T21:11:27.142Z,89.93
2022-11-12T21:14:28.660Z,89.55
2022-11-12T21:17:30.111Z,89.67
2022-11-12T21:20:31.584Z,89.77
2022-11-12T21:23:34.202Z,89.50
2022-11-12T21:26:40.092Z,89.68
2022-11-12T21:29:41.664Z,89.64
2022-11-12T21:32:43.095Z,89.69
2022-11-12T21:35:51.164Z,89.99
2022-11-12T21:38:52.668Z,89.74
2022-11-12T21:41:55.539Z,89.73
2022-11-12T21:44:57.099Z,88.99
2022-11-12T21:47:59.488Z,88.96
2022-11-12T21:51:02.440Z,88.57
2022-11-12T21:54:05.249Z,88.20
2022-11-12T21:57:08.286Z,87.80
2022-11-12T22:00:39.572Z,87.68
2022-11-12T22:03:31.984Z,87.87
2022-11-12T22:06:36.174Z,87.83
2022-11-12T22:09:38.027Z,87.86
2022-11-12T22:12:42.968Z,88.42
2022-11-12T22:15:55.167Z,88.87
2022-11-12T22:18:58.381Z,88.34
2022-11-12T22:22:00.630Z,88.99
2022-11-12T22:25:02.400Z,88.89
2022-11-12T22:28:05.288Z,89.14
2022-11-12T22:31:08.227Z,88.79
2022-11-12T22:34:09.682Z,89.00
2022-11-12T22:37:11.875Z,89.08
2022-11-12T22:40:13.830Z,89.10
2022-11-12T22:43:16.662Z,89.17
2022-11-12T22:46:18.915Z,89.07
2022-11-12T22:49:20.512Z,89.53
2022-11-12T22:52:21.933Z,89.44
2022-11-12T22:55:23.485Z,89.16
2022-11-12T22:58:26.915Z,89.07
2022-11-12T23:01:30.371Z,88.94
2022-11-12T23:04:31.883Z,88.54
2022-11-12T23:07:33.391Z,88.15
2022-11-12T23:10:34.993Z,88.39
2022-11-12T23:13:38.994Z,88.31
2022-11-12T23:16:40.676Z,88.71
2022-11-12T23:19:42.101Z,88.55
2022-11-12T23:22:43.631Z,88.66
2022-11-12T23:25:45.171Z,88.85
2022-11-12T23:28:49.577Z,89.14
2022-11-12T23:31:51.254Z,89.60
2022-11-12T23:34:52.881Z,89.28
2022-11-12T23:37:54.692Z,89.90
2022-11-12T23:40:56.195Z,89.87
2022-11-12T23:43:59.193Z,90.04
2022-11-12T23:47:01.051Z,90.30
2022-11-12T23:50:03.493Z,90.28
2022-11-12T23:53:04.970Z,90.14
2022-11-12T23:56:07.428Z,90.67
2022-11-12T23:59:10.340Z,90.98
